Overview Statistics Trail Chart Weather Telemetry Raw packets
 

This is the latest recevied weather packets stored in our database for station/object N0NB. If no packets are shown the sender has not sent any weather packets the latest 10 day(s).

<< 12 13 14 15 16 17 18 >>
Time Temp. Humidity Pressure Rain* Wind** Luminosity Snow
1788454517 32.22° C 61% 1009.8 hPa 0 mm - 658 W/m² -
1788453916 31.67° C 60% 1009.7 hPa 0 mm - 829 W/m² -
1788453317 31.11° C 65% 1009.9 hPa 0 mm - 341 W/m² -
1788452716 31.11° C 63% 1009.9 hPa 0 mm - 413 W/m² -
1788452117 31.11° C 63% 1010 hPa 0 mm - 705 W/m² -
1788451516 30.56° C 64% 1010 hPa 0 mm - 312 W/m² -
1788450917 31.11° C 61% 1010.1 hPa 0 mm - 765 W/m² -
1788450316 30.56° C 61% 1010 hPa 0 mm - 657 W/m² -
1788449717 30.56° C 62% 1010.1 hPa 0 mm - 608 W/m² -
1788449116 30.56° C 65% 1010.1 hPa 0 mm - 577 W/m² -
1788448516 30° C 64% 1010.1 hPa 0 mm - 591 W/m² -
1788447916 29.44° C 65% 1010 hPa 0 mm - 497 W/m² -
1788447316 29.44° C 66% 1010 hPa 0 mm - 423 W/m² -
1788446716 28.89° C 66% 1010.2 hPa 0 mm - 266 W/m² -
1788446116 28.89° C 66% 1010.3 hPa 0 mm - 195 W/m² -
1788445516 28.89° C 66% 1010.3 hPa 0 mm - 286 W/m² -
1788444916 28.33° C 68% 1010.3 hPa 0 mm - 439 W/m² -
1788444316 27.78° C 69% 1010.4 hPa 0 mm - 375 W/m² -
1788443716 27.22° C 69% 1010.3 hPa 0 mm - 227 W/m² -
1788443116 26.67° C 70% 1010.2 hPa 0 mm - 228 W/m² -
1788442516 26.67° C 70% 1010.3 hPa 0 mm - 107 W/m² -
1788441916 26.67° C 68% 1010.4 hPa 0 mm - 123 W/m² -
1788441316 27.22° C 68% 1010.4 hPa 0 mm - 159 W/m² -
1788440716 26.67° C 68% 1010.5 hPa 0 mm - 158 W/m² -
1788440116 26.67° C 68% 1010.3 hPa 0 mm - 118 W/m² -

* Rain latest hour (hover to see other rain measurements)
** Current wind speed in m/s (hover to see current wind gust speed)